Time;durP1;ratioP1;P1;durP2;ratioP2;P2;SDS_P1;SDS_P2;PMS_P1;PMS_P2;Temp;Humidity;BMP_temperature;BMP_pressure;BME280_temperature;BME280_humidity;BME280_pressure;Samples;Min_cycle;Max_cycle;Signal;HPM_P1;HPM_P2
2023/12/16 00:00:16;;;;;;;8.02;3.85;;;;;;;16.55;44.75;95181.13;5043100;28;20036;-90
2023/12/16 00:02:42;;;;;;;8.38;4.25;;;;;;;16.54;44.92;95183.09;5067316;28;20075;-89
2023/12/16 00:05:08;;;;;;;7.90;4.28;;;;;;;16.49;44.88;95180.19;5051772;28;20060;-89
2023/12/16 00:07:34;;;;;;;6.10;4.35;;;;;;;16.60;44.38;95166.84;5051122;28;20036;-89
2023/12/16 00:10:00;;;;;;;7.65;3.97;;;;;;;16.58;44.59;95170.03;5058189;28;20059;-89
2023/12/16 00:12:26;;;;;;;6.45;3.90;;;;;;;16.56;44.85;95171.72;5084301;28;20040;-89
2023/12/16 00:14:51;;;;;;;6.20;3.55;;;;;;;16.59;44.44;95170.81;5076374;28;20498;-89
2023/12/16 00:17:18;;;;;;;6.68;3.88;;;;;;;16.63;44.60;95163.22;5065708;28;20449;-89
2023/12/16 00:19:43;;;;;;;7.72;3.50;;;;;;;16.58;44.70;95174.75;5036185;28;20374;-89
2023/12/16 00:22:09;;;;;;;5.13;3.58;;;;;;;16.48;44.90;95173.97;5039936;28;20066;-89
2023/12/16 00:24:35;;;;;;;5.70;3.90;;;;;;;16.53;44.89;95181.56;5046888;28;20040;-89
2023/12/16 00:27:00;;;;;;;8.48;4.10;;;;;;;16.58;44.46;95183.69;5086630;28;20036;-89
2023/12/16 00:29:26;;;;;;;6.00;3.63;;;;;;;16.59;44.56;95182.47;5087185;28;20055;-89
2023/12/16 00:31:52;;;;;;;5.97;3.33;;;;;;;16.61;44.47;95190.97;5069321;28;20051;-89
2023/12/16 00:34:17;;;;;;;6.68;3.80;;;;;;;16.58;44.69;95202.81;5044464;28;20041;-89
2023/12/16 00:36:43;;;;;;;7.20;4.22;;;;;;;16.58;44.74;95196.59;5066022;28;20040;-89
2023/12/16 00:39:09;;;;;;;5.13;3.47;;;;;;;16.58;44.82;95196.59;5065635;28;20043;-89
2023/12/16 00:41:34;;;;;;;5.65;3.63;;;;;;;16.60;44.69;95207.81;5066572;28;20044;-89
2023/12/16 00:44:00;;;;;;;5.00;3.33;;;;;;;16.61;44.38;95207.34;5066841;28;20105;-89
2023/12/16 00:46:25;;;;;;;5.63;3.30;;;;;;;16.58;44.77;95199.31;5059598;28;20567;-89
2023/12/16 00:48:50;;;;;;;5.97;3.55;;;;;;;16.57;44.65;95197.78;5062559;28;20114;-89
2023/12/16 00:51:16;;;;;;;7.22;3.00;;;;;;;16.58;44.62;95205.53;5065781;28;20059;-89
2023/12/16 00:53:42;;;;;;;4.40;3.30;;;;;;;16.55;45.08;95203.72;5050559;28;20063;-89
2023/12/16 00:56:09;;;;;;;5.40;3.20;;;;;;;16.53;44.95;95208.09;5063947;28;20521;-89
2023/12/16 00:58:34;;;;;;;6.63;3.58;;;;;;;16.61;44.58;95204.63;5069953;28;20503;-89
2023/12/16 01:01:00;;;;;;;6.50;3.72;;;;;;;16.63;44.35;95209.63;5073724;28;20039;-90
2023/12/16 01:03:25;;;;;;;7.70;3.80;;;;;;;16.62;44.50;95219.03;5089212;28;20040;-89
2023/12/16 01:05:51;;;;;;;4.88;2.80;;;;;;;16.55;44.67;95224.78;5076606;28;20044;-89
2023/12/16 01:08:16;;;;;;;4.65;3.08;;;;;;;16.54;44.74;95210.38;5090071;28;20082;-89
2023/12/16 01:10:42;;;;;;;5.93;3.05;;;;;;;16.53;44.65;95214.31;5090084;28;20043;-89
2023/12/16 01:13:07;;;;;;;5.15;3.38;;;;;;;16.55;44.59;95209.16;5089993;28;20050;-89
2023/12/16 01:15:33;;;;;;;4.65;2.83;;;;;;;16.57;44.65;95195.81;5062518;28;20036;-89
2023/12/16 01:17:58;;;;;;;5.00;3.00;;;;;;;16.53;44.80;95197.94;5066801;28;20048;-89
2023/12/16 01:20:23;;;;;;;4.95;3.30;;;;;;;16.53;44.85;95197.94;5066247;28;20053;-90
2023/12/16 01:22:50;;;;;;;5.50;3.05;;;;;;;16.60;44.39;95208.56;5056571;28;20043;-89
2023/12/16 01:25:15;;;;;;;5.68;3.08;;;;;;;16.60;44.58;95211.31;5057019;28;20048;-89
2023/12/16 01:27:42;;;;;;;6.43;3.35;;;;;;;16.58;44.49;95215.69;5069688;28;20390;-90
2023/12/16 01:30:08;;;;;;;5.50;3.08;;;;;;;16.62;44.50;95217.06;5070434;28;20034;-89
2023/12/16 01:32:33;;;;;;;4.90;3.10;;;;;;;16.60;44.70;95205.09;5069050;28;20032;-89
2023/12/16 01:34:59;;;;;;;4.97;2.75;;;;;;;16.62;44.60;95208.13;5058131;28;20040;-89
2023/12/16 01:37:26;;;;;;;4.15;2.85;;;;;;;16.57;44.39;95214.94;5068825;28;20086;-89
2023/12/16 01:39:52;;;;;;;8.25;3.03;;;;;;;16.62;44.53;95213.59;5084393;28;20042;-89
2023/12/16 01:42:18;;;;;;;4.30;3.00;;;;;;;16.61;44.22;95215.56;5052699;28;20538;-90
2023/12/16 01:44:43;;;;;;;4.70;3.00;;;;;;;16.57;44.49;95212.22;5073523;28;20079;-89
2023/12/16 01:47:08;;;;;;;3.83;2.47;;;;;;;16.61;44.58;95206.59;5051615;28;20474;-89
2023/12/16 01:49:34;;;;;;;5.85;3.17;;;;;;;16.58;44.71;95189.16;5042694;28;20049;-89
2023/12/16 01:51:59;;;;;;;6.00;2.50;;;;;;;16.58;44.19;95191.13;5059841;28;20040;-89
2023/12/16 01:54:25;;;;;;;7.55;3.95;;;;;;;16.55;44.66;95192.03;5064672;28;20039;-89
2023/12/16 01:56:55;;;;;;;5.75;2.78;;;;;;;16.43;45.19;95197.19;5069973;28;20040;-89
2023/12/16 01:59:21;;;;;;;5.78;3.38;;;;;;;16.51;44.66;95205.81;5066274;28;20465;-89
2023/12/16 02:01:46;;;;;;;6.00;3.10;;;;;;;16.46;44.74;95207.19;5070683;28;20139;-89
2023/12/16 02:04:12;;;;;;;4.85;2.80;;;;;;;16.54;44.53;95194.00;5071618;28;20045;-89
2023/12/16 02:06:39;;;;;;;5.00;2.75;;;;;;;16.60;44.30;95197.66;5067994;28;20399;-89
2023/12/16 02:09:05;;;;;;;4.72;2.78;;;;;;;16.57;44.76;95212.22;5049895;28;20052;-89
2023/12/16 02:11:31;;;;;;;3.90;2.67;;;;;;;16.57;44.45;95212.22;5053374;28;20410;-89
2023/12/16 02:13:56;;;;;;;4.28;2.63;;;;;;;16.60;44.52;95221.47;5061773;28;20108;-89
2023/12/16 02:16:22;;;;;;;3.25;2.70;;;;;;;16.61;44.54;95226.47;5070539;28;20148;-89
2023/12/16 02:18:48;;;;;;;3.50;2.70;;;;;;;16.60;44.39;95219.50;5069983;28;20041;-89
2023/12/16 02:21:13;;;;;;;6.25;3.28;;;;;;;16.59;44.84;95228.13;5069088;28;20032;-89
2023/12/16 02:23:39;;;;;;;5.38;2.88;;;;;;;16.61;44.23;95229.19;5051036;28;20036;-89
2023/12/16 02:26:04;;;;;;;4.20;2.75;;;;;;;16.51;44.76;95229.63;5052161;28;20057;-89
2023/12/16 02:28:30;;;;;;;5.20;2.67;;;;;;;16.55;44.64;95239.19;5069783;28;20044;-89
2023/12/16 02:30:56;;;;;;;3.65;2.80;;;;;;;16.56;44.68;95232.53;5067857;28;20036;-89
2023/12/16 02:33:21;;;;;;;4.20;2.63;;;;;;;16.53;44.77;95232.69;5102582;28;20044;-89
2023/12/16 02:35:47;;;;;;;4.03;2.47;;;;;;;16.50;44.90;95223.41;5061775;28;20036;-90
2023/12/16 02:38:13;;;;;;;5.40;2.53;;;;;;;16.56;44.58;95229.03;5050869;28;20040;-89
2023/12/16 02:40:42;;;;;;;4.25;2.58;;;;;;;16.51;44.69;95233.13;5048637;28;20043;-90
2023/12/16 02:43:08;;;;;;;4.55;2.53;;;;;;;16.58;44.53;95227.38;5085252;28;20067;-89
2023/12/16 02:45:33;;;;;;;3.70;2.60;;;;;;;16.57;44.41;95222.38;5062663;28;20043;-89
2023/12/16 02:47:59;;;;;;;4.80;2.72;;;;;;;16.53;44.81;95227.97;5035445;28;20403;-89
2023/12/16 02:50:24;;;;;;;3.67;2.40;;;;;;;16.57;44.12;95230.56;5071892;28;20376;-89
2023/12/16 02:52:50;;;;;;;4.93;2.65;;;;;;;16.55;44.50;95231.00;5069815;28;20036;-89
2023/12/16 02:55:17;;;;;;;3.15;2.15;;;;;;;16.61;44.23;95237.38;5068296;28;20581;-89
2023/12/16 02:57:42;;;;;;;4.50;2.67;;;;;;;16.57;44.65;95236.78;5061922;28;20052;-90
2023/12/16 03:00:08;;;;;;;4.78;2.80;;;;;;;16.55;44.93;95252.09;5047310;28;20036;-89
2023/12/16 03:02:34;;;;;;;3.95;2.60;;;;;;;16.52;45.10;95264.69;5051579;28;20044;-89
2023/12/16 03:04:59;;;;;;;4.85;3.20;;;;;;;16.59;44.32;95275.31;5052004;28;20044;-89
2023/12/16 03:07:25;;;;;;;4.75;2.60;;;;;;;16.56;44.68;95272.72;5076870;28;20585;-89
2023/12/16 03:09:50;;;;;;;4.05;2.42;;;;;;;16.58;44.53;95278.50;5052065;28;20040;-89
2023/12/16 03:12:16;;;;;;;3.78;2.72;;;;;;;16.51;45.15;95278.78;5065184;28;20040;-89
2023/12/16 03:14:41;;;;;;;3.53;2.17;;;;;;;16.61;44.51;95281.06;5063887;28;20029;-89
2023/12/16 03:17:07;;;;;;;2.92;2.05;;;;;;;16.59;44.16;95275.31;5061855;28;20041;-89
2023/12/16 03:19:33;;;;;;;3.28;2.42;;;;;;;16.63;44.15;95269.72;5067955;28;20040;-89
2023/12/16 03:21:58;;;;;;;3.75;2.40;;;;;;;16.59;44.42;95269.84;5058801;28;20047;-89
2023/12/16 03:24:24;;;;;;;4.32;2.38;;;;;;;16.57;44.71;95266.06;5069535;28;20076;-89
2023/12/16 03:26:49;;;;;;;3.00;2.03;;;;;;;16.56;44.31;95262.56;5048516;28;20058;-89
2023/12/16 03:29:14;;;;;;;4.18;2.30;;;;;;;16.56;44.44;95268.03;5043704;28;20052;-89
2023/12/16 03:31:40;;;;;;;3.63;2.40;;;;;;;16.60;44.11;95265.16;5087313;28;20048;-89
2023/12/16 03:34:05;;;;;;;3.25;2.38;;;;;;;16.54;44.58;95261.50;5064349;28;20495;-89
2023/12/16 03:36:31;;;;;;;3.17;2.05;;;;;;;16.59;44.32;95267.13;5073498;28;20048;-90
2023/12/16 03:38:56;;;;;;;3.92;3.00;;;;;;;16.61;44.49;95259.22;5046735;28;20037;-89
2023/12/16 03:41:22;;;;;;;3.70;2.17;;;;;;;16.51;44.73;95270.59;5069525;28;20075;-89
2023/12/16 03:43:47;;;;;;;2.95;2.10;;;;;;;16.52;44.41;95264.69;5067942;28;20518;-89
2023/12/16 03:46:13;;;;;;;3.50;2.22;;;;;;;16.48;45.08;95260.56;5077471;28;20048;-89
2023/12/16 03:48:38;;;;;;;4.43;2.50;;;;;;;16.48;44.83;95257.84;5079997;28;20040;-89
2023/12/16 03:51:04;;;;;;;3.55;2.22;;;;;;;16.59;44.39;95266.34;5033996;28;20036;-90
2023/12/16 03:53:29;;;;;;;2.70;2.03;;;;;;;16.59;44.46;95267.13;5049883;28;20538;-89
2023/12/16 03:55:55;;;;;;;2.58;1.80;;;;;;;16.58;44.60;95260.13;5051590;28;20059;-90
2023/12/16 03:58:21;;;;;;;4.25;2.00;;;;;;;16.57;44.44;95250.44;5062953;28;20037;-89
2023/12/16 04:00:46;;;;;;;2.47;1.88;;;;;;;16.53;44.25;95247.09;5050478;28;20032;-89
2023/12/16 04:03:12;;;;;;;3.42;2.30;;;;;;;16.56;44.46;95235.25;5083607;28;20482;-89
2023/12/16 04:05:37;;;;;;;3.20;2.35;;;;;;;16.59;44.53;95233.59;5067088;28;20047;-90
2023/12/16 04:08:03;;;;;;;3.38;2.40;;;;;;;16.57;44.44;95239.50;5053478;28;20035;-89
2023/12/16 04:10:29;;;;;;;4.85;2.50;;;;;;;16.57;44.83;95242.25;5066498;28;20058;-90
2023/12/16 04:12:54;;;;;;;4.18;2.00;;;;;;;16.60;44.43;95251.50;5050750;28;20511;-89
2023/12/16 04:15:20;;;;;;;3.28;2.10;;;;;;;16.55;44.67;95235.72;5065257;28;20036;-89
2023/12/16 04:17:45;;;;;;;3.05;1.77;;;;;;;16.56;44.26;95248.91;5063860;28;20036;-89
2023/12/16 04:20:11;;;;;;;3.13;1.88;;;;;;;16.55;44.42;95249.38;5083754;28;20036;-89
2023/12/16 04:22:37;;;;;;;2.65;1.92;;;;;;;16.57;44.50;95255.88;5082763;28;20067;-89
2023/12/16 04:25:09;;;;;;;2.45;1.80;;;;;;;16.54;44.31;95256.78;5060417;28;20032;-89
2023/12/16 04:27:34;;;;;;;4.20;2.15;;;;;;;16.56;44.46;95272.72;5066175;28;20052;-89
2023/12/16 04:30:00;;;;;;;3.30;2.30;;;;;;;16.56;44.37;95273.47;5049479;28;20032;-89
2023/12/16 04:32:25;;;;;;;2.70;2.00;;;;;;;16.56;44.38;95272.72;5063247;28;20442;-89
2023/12/16 04:34:51;;;;;;;2.95;2.17;;;;;;;16.58;44.62;95264.84;5046905;28;20483;-89
2023/12/16 04:37:16;;;;;;;3.83;2.33;;;;;;;16.53;44.56;95268.16;5042712;28;20090;-89
2023/12/16 04:39:42;;;;;;;4.05;2.22;;;;;;;16.56;44.48;95267.25;5043033;28;20037;-89
2023/12/16 04:42:10;;;;;;;3.03;1.95;;;;;;;16.54;44.38;95267.72;5040138;28;20434;-90
2023/12/16 04:44:36;;;;;;;3.58;2.33;;;;;;;16.54;44.80;95266.97;5029506;28;20037;-89
2023/12/16 04:47:02;;;;;;;3.83;2.08;;;;;;;16.56;44.52;95267.25;5053625;28;20166;-89
2023/12/16 04:49:27;;;;;;;3.60;2.03;;;;;;;16.51;44.81;95279.53;5030501;28;20469;-89
2023/12/16 04:51:53;;;;;;;3.15;1.90;;;;;;;16.44;45.05;95264.22;5045389;28;20044;-89
2023/12/16 04:54:18;;;;;;;3.40;2.35;;;;;;;16.49;44.57;95267.56;5029408;28;20043;-89
2023/12/16 04:56:44;;;;;;;1.90;1.58;;;;;;;16.53;44.88;95268.94;5038271;28;20498;-90
2023/12/16 04:59:09;;;;;;;3.67;1.95;;;;;;;16.54;44.47;95272.41;5082758;28;20807;-89
2023/12/16 05:01:34;;;;;;;3.10;2.10;;;;;;;16.55;44.71;95284.84;5061437;28;20036;-89
2023/12/16 05:04:00;;;;;;;2.90;1.80;;;;;;;16.57;44.46;95287.91;5054155;28;20563;-89
2023/12/16 05:06:25;;;;;;;2.22;1.85;;;;;;;16.54;44.38;95278.63;5054165;28;20494;-89
2023/12/16 05:08:51;;;;;;;2.95;1.83;;;;;;;16.48;44.87;95291.34;5088566;28;20044;-89
2023/12/16 05:11:16;;;;;;;3.20;2.70;;;;;;;16.49;44.82;95294.84;5040651;28;20488;-89
2023/12/16 05:13:44;;;;;;;2.88;2.10;;;;;;;16.46;44.84;95299.25;5049719;28;20407;-89
2023/12/16 05:16:09;;;;;;;2.22;2.03;;;;;;;16.54;44.52;95303.22;5030376;28;20109;-89
2023/12/16 05:18:35;;;;;;;2.80;1.98;;;;;;;16.51;44.81;95306.06;5034167;28;20383;-89
2023/12/16 05:21:00;;;;;;;3.60;2.00;;;;;;;16.55;44.61;95301.22;5081099;28;20036;-89
2023/12/16 05:23:25;;;;;;;2.83;1.95;;;;;;;16.55;44.85;95299.25;5029464;28;20078;-89
2023/12/16 05:25:51;;;;;;;2.40;1.95;;;;;;;16.57;43.98;95299.56;5044128;28;20040;-89
2023/12/16 05:28:16;;;;;;;2.80;2.03;;;;;;;16.54;44.38;95299.72;5047046;28;20083;-89
2023/12/16 05:30:42;;;;;;;2.53;1.95;;;;;;;16.49;44.63;95289.38;5047166;28;20564;-89
2023/12/16 05:33:07;;;;;;;3.17;2.05;;;;;;;16.51;44.44;95295.91;5065927;28;20215;-89
2023/12/16 05:35:32;;;;;;;2.33;1.80;;;;;;;16.53;44.82;95303.66;5041630;28;20674;-89
2023/12/16 05:37:58;;;;;;;2.75;1.83;;;;;;;16.53;44.64;95300.94;5058198;28;20530;-89
2023/12/16 05:40:23;;;;;;;2.72;1.70;;;;;;;16.54;44.26;95311.41;5025747;28;20041;-89
2023/12/16 05:42:49;;;;;;;2.75;1.88;;;;;;;16.54;44.36;95305.19;5038461;28;20098;-89
2023/12/16 05:45:14;;;;;;;2.85;1.88;;;;;;;16.53;44.52;95307.16;5029930;28;20106;-89
2023/12/16 05:47:40;;;;;;;2.97;1.90;;;;;;;16.52;44.62;95297.44;5030652;28;20048;-89
2023/12/16 05:50:08;;;;;;;3.90;2.15;;;;;;;16.53;44.60;95298.97;5063172;28;20041;-90
2023/12/16 05:52:34;;;;;;;3.28;2.08;;;;;;;16.53;44.33;95298.19;5081660;28;20036;-89
2023/12/16 05:54:59;;;;;;;3.08;2.15;;;;;;;16.42;45.09;95290.47;5049998;28;20105;-89
2023/12/16 05:57:25;;;;;;;4.93;1.92;;;;;;;16.55;44.35;95287.59;5060424;28;20036;-89
2023/12/16 05:59:51;;;;;;;3.45;2.28;;;;;;;16.57;44.34;95305.03;5097890;28;20051;-90
2023/12/16 06:02:16;;;;;;;5.35;2.67;;;;;;;16.54;44.74;95296.97;5072222;28;20052;-89
2023/12/16 06:04:42;;;;;;;2.22;1.77;;;;;;;16.55;44.64;95295.78;5056189;28;20044;-89
2023/12/16 06:07:07;;;;;;;3.25;2.15;;;;;;;16.55;44.60;95303.97;5053519;28;20028;-89
2023/12/16 06:09:33;;;;;;;2.40;1.80;;;;;;;16.54;44.42;95305.94;5053040;28;20051;-90
2023/12/16 06:11:59;;;;;;;2.80;2.05;;;;;;;16.57;44.18;95310.50;5030103;28;20048;-89
2023/12/16 06:14:25;;;;;;;3.38;1.98;;;;;;;16.57;44.37;95315.97;5031105;28;20035;-90
2023/12/16 06:16:50;;;;;;;5.20;1.98;;;;;;;16.58;44.14;95330.38;5040999;28;20040;-89
2023/12/16 06:19:16;;;;;;;3.63;1.98;;;;;;;16.60;44.45;95331.44;5026159;28;20515;-89
2023/12/16 06:21:41;;;;;;;2.42;1.80;;;;;;;16.58;44.16;95339.31;4996219;28;20079;-89
2023/12/16 06:24:10;;;;;;;2.72;1.80;;;;;;;16.53;44.57;95347.34;4991212;28;20091;-90
2023/12/16 06:26:35;;;;;;;2.28;1.67;;;;;;;16.55;44.34;95355.84;4999118;28;20578;-89
2023/12/16 06:29:01;;;;;;;3.83;1.83;;;;;;;16.57;44.31;95359.63;4990703;28;20107;-89
2023/12/16 06:31:26;;;;;;;2.58;1.92;;;;;;;16.59;44.29;95362.69;5002466;28;20179;-89
2023/12/16 06:33:52;;;;;;;2.70;2.00;;;;;;;16.57;44.66;95367.06;5011580;28;20091;-89
2023/12/16 06:36:17;;;;;;;4.53;2.20;;;;;;;16.57;44.47;95367.06;5007208;28;20049;-89
2023/12/16 06:38:43;;;;;;;2.83;1.98;;;;;;;16.56;44.33;95368.28;4991948;28;20029;-89
2023/12/16 06:41:08;;;;;;;3.03;1.95;;;;;;;16.55;44.60;95361.28;5006452;28;20099;-89
2023/12/16 06:43:33;;;;;;;3.13;1.88;;;;;;;16.51;44.67;95374.31;4982544;28;20045;-89
2023/12/16 06:45:59;;;;;;;2.90;2.15;;;;;;;16.52;44.68;95368.41;4975153;28;20100;-89
2023/12/16 06:48:24;;;;;;;4.35;2.20;;;;;;;16.54;44.40;95363.28;4993374;28;20409;-90
2023/12/16 06:50:50;;;;;;;2.53;2.00;;;;;;;16.54;44.47;95366.00;5062503;28;20370;-89
2023/12/16 06:53:16;;;;;;;2.25;1.80;;;;;;;16.56;44.40;95351.91;5054522;28;20040;-89
2023/12/16 06:55:43;;;;;;;2.15;1.80;;;;;;;16.46;44.25;95354.59;5072260;28;20049;-90
2023/12/16 06:58:08;;;;;;;3.75;2.50;;;;;;;16.56;44.70;95357.34;5042446;28;20048;-89
2023/12/16 07:00:33;;;;;;;2.75;1.90;;;;;;;16.54;44.22;95363.28;5049438;28;20514;-89
2023/12/16 07:02:59;;;;;;;2.38;1.85;;;;;;;16.45;44.72;95363.25;5015148;28;20407;-89
2023/12/16 07:05:25;;;;;;;2.75;1.90;;;;;;;16.54;44.14;95365.25;5027300;28;20411;-89
2023/12/16 07:07:50;;;;;;;2.97;1.60;;;;;;;16.48;44.64;95370.53;5027871;28;20036;-89
2023/12/16 07:10:19;;;;;;;3.25;2.45;;;;;;;16.54;44.39;95366.00;5047912;28;20029;-89
2023/12/16 07:12:44;;;;;;;2.40;1.70;;;;;;;16.52;44.33;95367.66;5058894;28;20047;-90
2023/12/16 07:15:10;;;;;;;3.30;2.05;;;;;;;16.56;44.43;95366.31;5030119;28;20036;-89
2023/12/16 07:17:36;;;;;;;2.78;1.63;;;;;;;16.55;44.64;95358.56;5033731;28;20043;-89
2023/12/16 07:20:01;;;;;;;3.30;1.70;;;;;;;16.56;44.10;95351.91;5030962;28;20045;-89
2023/12/16 07:22:29;;;;;;;2.55;2.00;;;;;;;16.54;44.62;95357.03;5030647;28;20048;-90
2023/12/16 07:24:55;;;;;;;3.30;2.03;;;;;;;16.50;44.96;95367.34;5032221;28;20052;-90
2023/12/16 07:27:21;;;;;;;3.17;2.13;;;;;;;16.43;44.70;95363.72;5062108;28;20033;-89
2023/12/16 07:29:47;;;;;;;3.03;1.70;;;;;;;16.48;44.37;95367.78;5065345;28;20045;-90
2023/12/16 07:32:12;;;;;;;4.45;2.08;;;;;;;16.51;44.55;95382.50;5037654;28;20048;-89
2023/12/16 07:34:38;;;;;;;3.63;2.40;;;;;;;16.52;44.23;95384.03;5046725;28;20048;-89
2023/12/16 07:37:04;;;;;;;3.28;2.28;;;;;;;16.52;44.42;95392.22;5049776;28;20025;-89
2023/12/16 07:39:29;;;;;;;2.65;1.90;;;;;;;16.54;44.49;95398.00;5064789;28;20588;-89
2023/12/16 07:41:55;;;;;;;4.60;1.80;;;;;;;16.56;44.47;95401.03;5030449;28;20048;-89
2023/12/16 07:44:20;;;;;;;3.50;2.10;;;;;;;16.52;44.30;95392.22;5039750;28;20053;-89
2023/12/16 07:46:46;;;;;;;3.08;1.80;;;;;;;16.56;44.40;95396.34;5062812;28;20049;-90
2023/12/16 07:49:12;;;;;;;2.28;1.80;;;;;;;16.53;44.55;95402.69;5029276;28;20033;-89
2023/12/16 07:51:37;;;;;;;2.90;2.10;;;;;;;16.50;44.51;95400.88;5031575;28;20419;-89
2023/12/16 07:54:02;;;;;;;2.03;1.65;;;;;;;16.55;44.27;95407.72;5030915;28;20550;-89
2023/12/16 07:56:28;;;;;;;3.15;2.30;;;;;;;16.56;44.16;95415.47;5043173;28;20527;-89
2023/12/16 07:58:53;;;;;;;3.10;2.05;;;;;;;16.55;44.34;95416.66;5045071;28;20044;-90
2023/12/16 08:01:19;;;;;;;2.17;1.70;;;;;;;16.54;44.54;95428.78;5056333;28;20124;-89
2023/12/16 08:03:45;;;;;;;1.83;1.60;;;;;;;16.55;44.29;95429.56;5042387;28;20048;-89
2023/12/16 08:06:11;;;;;;;2.55;2.08;;;;;;;16.59;44.23;95439.13;5056368;28;20114;-89
2023/12/16 08:08:37;;;;;;;3.03;2.05;;;;;;;16.50;44.80;95433.63;5011588;28;20048;-89
2023/12/16 08:11:04;;;;;;;2.25;1.85;;;;;;;16.55;44.29;95443.97;5015841;28;20033;-89
2023/12/16 08:13:29;;;;;;;2.80;1.90;;;;;;;16.50;44.47;95441.06;5030715;28;20032;-90
2023/12/16 08:15:55;;;;;;;3.88;1.98;;;;;;;16.58;44.37;95440.34;5016198;28;20041;-89
2023/12/16 08:18:20;;;;;;;2.90;2.00;;;;;;;16.47;44.46;95437.25;5013498;28;20037;-90
2023/12/16 08:20:46;;;;;;;4.05;2.05;;;;;;;16.53;44.50;95429.25;5057691;28;20044;-90
2023/12/16 08:23:11;;;;;;;2.88;2.00;;;;;;;16.51;44.60;95434.38;5024475;28;20056;-90
2023/12/16 08:25:37;;;;;;;2.22;1.58;;;;;;;16.56;44.33;95425.63;5006410;28;20072;-91
2023/12/16 08:28:03;;;;;;;2.60;1.75;;;;;;;16.60;44.32;95428.97;5043328;28;20495;-90
2023/12/16 08:30:28;;;;;;;3.22;1.85;;;;;;;16.59;44.11;95435.63;5047523;28;20105;-91
2023/12/16 08:32:54;;;;;;;3.05;1.80;;;;;;;16.56;44.25;95437.28;5025828;28;20281;-90
2023/12/16 08:35:19;;;;;;;2.13;1.40;;;;;;;16.56;44.43;95442.75;5029579;28;20413;-91
2023/12/16 08:37:44;;;;;;;2.38;1.77;;;;;;;16.57;44.30;95432.59;5005999;28;20083;-90
2023/12/16 08:40:10;;;;;;;2.40;1.80;;;;;;;16.50;44.64;95436.34;5002677;28;20038;-91
2023/12/16 08:42:36;;;;;;;2.45;1.70;;;;;;;16.56;44.51;95436.53;4992548;28;20409;-90
2023/12/16 08:45:02;;;;;;;3.88;2.20;;;;;;;16.57;44.79;95446.25;4976200;28;20098;-90
2023/12/16 08:47:27;;;;;;;2.63;1.75;;;;;;;16.59;44.42;95450.06;4992844;28;20128;-90
2023/12/16 08:49:53;;;;;;;2.65;1.73;;;;;;;16.58;43.94;95458.69;4977710;28;20457;-90
2023/12/16 08:52:18;;;;;;;1.98;1.67;;;;;;;16.60;44.84;95459.00;4990827;28;20049;-90
2023/12/16 08:54:44;;;;;;;2.72;1.77;;;;;;;16.58;44.32;95467.66;4993614;28;20029;-90
2023/12/16 08:57:09;;;;;;;2.72;1.80;;;;;;;16.53;44.52;95465.50;5010368;28;20041;-90
2023/12/16 08:59:35;;;;;;;2.63;1.77;;;;;;;16.52;44.42;95466.69;5009312;28;20079;-90
2023/12/16 09:02:00;;;;;;;2.10;1.50;;;;;;;16.55;44.42;95467.78;4989967;28;20894;-90
2023/12/16 09:04:26;;;;;;;2.88;1.70;;;;;;;16.56;43.96;95461.88;5025406;28;20258;-90
2023/12/16 09:06:51;;;;;;;7.70;5.03;;;;;;;16.36;42.96;95467.69;5028342;28;20048;-91
2023/12/16 09:09:17;;;;;;;10.13;5.50;;;;;;;16.24;42.18;95471.25;5040330;28;20048;-90
2023/12/16 09:11:45;;;;;;;13.80;6.65;;;;;;;16.08;41.69;95469.50;5037119;28;20036;-91
2023/12/16 09:14:12;;;;;;;22.52;7.40;;;;;;;15.95;41.24;95477.00;5034093;28;20032;-90
2023/12/16 09:16:37;;;;;;;21.38;7.88;;;;;;;16.01;41.24;95483.41;5063513;28;20058;-90
2023/12/16 09:19:03;;;;;;;28.83;6.97;;;;;;;16.03;41.24;95489.16;5043171;28;20495;-90
2023/12/16 09:21:29;;;;;;;19.75;6.38;;;;;;;16.13;41.54;95484.53;5044198;28;20525;-90
2023/12/16 09:23:55;;;;;;;16.70;7.15;;;;;;;16.16;41.69;95488.34;5048232;28;20062;-90
2023/12/16 09:26:21;;;;;;;24.27;6.57;;;;;;;16.18;41.89;95483.22;5052353;28;20043;-90
2023/12/16 09:28:47;;;;;;;9.40;5.28;;;;;;;16.21;42.73;95490.50;5042089;28;20036;-90
2023/12/16 09:31:13;;;;;;;12.63;4.95;;;;;;;16.28;43.02;95491.00;5042400;28;20040;-91
2023/12/16 09:33:38;;;;;;;6.90;4.13;;;;;;;16.30;43.20;95496.00;5055032;28;20051;-90
2023/12/16 09:36:04;;;;;;;7.57;4.28;;;;;;;16.33;43.51;95495.88;5053604;28;20055;-90
2023/12/16 09:38:30;;;;;;;4.53;3.70;;;;;;;16.31;43.70;95495.56;5051189;28;20441;-90
2023/12/16 09:40:55;;;;;;;7.70;3.53;;;;;;;16.36;43.57;95500.44;5062530;28;20044;-90
2023/12/16 09:43:21;;;;;;;8.48;3.88;;;;;;;16.36;43.65;95494.22;5045238;28;20041;-90
2023/12/16 09:45:49;;;;;;;5.57;3.33;;;;;;;16.40;43.53;95497.59;5041652;28;20044;-91
2023/12/16 09:48:15;;;;;;;5.75;3.85;;;;;;;16.38;43.34;95494.53;5078545;28;20411;-91
2023/12/16 09:50:40;;;;;;;7.15;3.88;;;;;;;16.33;43.92;95489.66;5033504;28;20451;-90
2023/12/16 09:53:06;;;;;;;8.20;4.22;;;;;;;16.33;43.72;95489.66;5039623;28;20071;-90
2023/12/16 09:55:31;;;;;;;7.63;3.88;;;;;;;16.40;43.30;95484.72;5040506;28;20451;-90
2023/12/16 09:57:56;;;;;;;8.80;3.33;;;;;;;16.44;43.08;95498.22;5049644;28;20453;-90
2023/12/16 10:00:22;;;;;;;4.70;3.42;;;;;;;16.41;43.39;95491.69;5049396;28;20066;-90
2023/12/16 10:02:50;;;;;;;5.85;3.90;;;;;;;16.40;43.47;95494.88;5049148;28;20483;-90
2023/12/16 10:05:17;;;;;;;10.63;3.70;;;;;;;16.49;43.14;95481.25;5036756;28;20048;-90
2023/12/16 10:07:42;;;;;;;7.28;3.72;;;;;;;16.40;43.78;95487.44;5034392;28;20481;-90
2023/12/16 10:10:08;;;;;;;7.20;3.97;;;;;;;16.39;43.68;95485.91;5047130;28;20045;-90
2023/12/16 10:12:34;;;;;;;5.53;3.55;;;;;;;16.51;43.27;95481.56;5033606;28;20044;-90
2023/12/16 10:15:01;;;;;;;6.15;3.78;;;;;;;16.40;43.65;95484.72;5048408;28;20040;-91
2023/12/16 10:17:28;;;;;;;5.15;3.83;;;;;;;16.49;43.09;95494.13;5048968;28;20118;-91
2023/12/16 10:19:53;;;;;;;5.53;2.88;;;;;;;16.48;43.58;95503.53;5066692;28;20751;-91
2023/12/16 10:22:19;;;;;;;6.05;3.25;;;;;;;16.53;43.29;95487.34;5041368;28;20043;-91
2023/12/16 10:24:45;;;;;;;9.77;3.70;;;;;;;16.43;43.59;95497.47;5048836;28;20135;-90
2023/12/16 10:27:10;;;;;;;5.10;3.17;;;;;;;16.45;43.18;95475.19;5059315;28;20409;-90
2023/12/16 10:29:39;;;;;;;6.25;3.58;;;;;;;16.52;43.59;95466.69;5036033;28;20548;-91
2023/12/16 10:32:07;;;;;;;4.82;3.38;;;;;;;16.52;43.42;95474.88;5043389;28;20707;-90
2023/12/16 10:34:33;;;;;;;11.20;6.47;;;;;;;16.42;43.79;95467.88;5047177;28;20482;-91
2023/12/16 10:37:05;;;;;;;10.73;8.73;;;;;;;16.45;43.69;95469.72;5041380;28;20036;-91
2023/12/16 10:39:31;;;;;;;575.80;234.93;;;;;;;16.53;43.72;95470.94;5021469;28;20047;-91
2023/12/16 10:41:57;;;;;;;239.05;67.43;;;;;;;16.54;43.22;95472.47;5033735;28;20529;-91
2023/12/16 10:44:22;;;;;;;217.32;57.60;;;;;;;16.53;43.35;95467.47;5052628;28;20055;-91
2023/12/16 10:46:49;;;;;;;8.15;5.05;;;;;;;16.42;43.66;95457.72;5045639;28;20517;-91
2023/12/16 10:49:14;;;;;;;5.63;3.53;;;;;;;16.52;43.75;95457.75;5032985;28;20045;-91
2023/12/16 10:51:43;;;;;;;50.95;13.35;;;;;;;16.53;43.73;95472.91;5042225;28;20101;-90
2023/12/16 10:54:13;;;;;;;17.02;6.45;;;;;;;16.49;43.65;95464.09;5033938;28;20041;-91
2023/12/16 10:56:38;;;;;;;5.43;3.97;;;;;;;16.49;43.69;95451.22;5042440;28;20047;-91
2023/12/16 10:59:05;;;;;;;8.73;5.00;;;;;;;16.46;43.72;95449.38;5042903;28;20055;-91
2023/12/16 11:01:34;;;;;;;24.60;8.88;;;;;;;16.54;43.21;95453.38;5052568;28;20072;-91
2023/12/16 11:04:06;;;;;;;8.57;3.30;;;;;;;16.54;43.66;95458.06;5044818;28;20075;-91
2023/12/16 11:06:46;;;;;;;5.47;4.22;;;;;;;16.44;43.71;95449.84;5052375;28;20040;-91
2023/12/16 11:09:12;;;;;;;6.50;3.83;;;;;;;16.50;43.62;95446.50;5046666;28;20040;-91
2023/12/16 11:11:37;;;;;;;6.05;4.05;;;;;;;16.48;43.95;95455.16;5041947;28;20058;-91
2023/12/16 11:14:03;;;;;;;6.55;3.78;;;;;;;16.53;43.43;95445.63;5045127;28;20041;-91
2023/12/16 11:16:42;;;;;;;5.30;3.50;;;;;;;16.54;43.55;95436.22;5050133;28;20048;-90
2023/12/16 11:19:07;;;;;;;5.55;3.63;;;;;;;16.52;43.64;95438.63;5068334;28;20051;-91
2023/12/16 11:21:33;;;;;;;7.20;3.70;;;;;;;16.59;43.46;95427.44;5072829;28;20040;-90
2023/12/16 11:24:01;;;;;;;5.38;3.83;;;;;;;16.53;43.55;95431.97;5072761;28;20035;-91